Time;durP1;ratioP1;P1;durP2;ratioP2;P2;SDS_P1;SDS_P2;PMS_P1;PMS_P2;Temp;Humidity;BMP_temperature;BMP_pressure;BME280_temperature;BME280_humidity;BME280_pressure;Samples;Min_cycle;Max_cycle;Signal;HPM_P1;HPM_P2
2022/04/12 00:00:40;;;;;;;34.10;15.55;;;22.60;99.90;;;;;;5027675;28;20084;-54
2022/04/12 00:03:07;;;;;;;28.33;15.95;;;22.60;99.90;;;;;;5027423;28;20021;-53
2022/04/12 00:05:33;;;;;;;29.27;15.77;;;22.60;99.90;;;;;;5028326;28;20044;-53
2022/04/12 00:08:00;;;;;;;28.30;15.68;;;22.60;99.90;;;;;;5028897;28;20112;-52
2022/04/12 00:10:27;;;;;;;29.75;15.82;;;22.60;99.90;;;;;;5029412;28;20512;-54
2022/04/12 00:12:53;;;;;;;;;;;22.60;99.90;;;;;;5028698;28;20026;-53
2022/04/12 00:15:20;;;;;;;23.70;14.65;;;22.60;99.90;;;;;;5028954;28;19915;-54
2022/04/12 00:20:30;;;;;;;23.00;15.10;;;22.60;99.90;;;;;;5023079;28;20028;-53
2022/04/12 00:22:58;;;;;;;24.95;15.23;;;22.60;99.90;;;;;;5027473;28;20279;-54
2022/04/12 00:25:25;;;;;;;25.38;15.68;;;22.50;99.90;;;;;;5026487;28;20535;-54
2022/04/12 00:27:53;;;;;;;24.50;15.88;;;22.50;99.90;;;;;;5026394;28;20041;-54
2022/04/12 00:30:19;;;;;;;;;;;22.60;99.90;;;;;;5029501;28;20104;-54
2022/04/12 00:32:45;;;;;;;26.17;15.32;;;22.50;99.90;;;;;;5028434;28;19963;-54
2022/04/12 00:35:11;;;;;;;26.80;16.30;;;22.50;99.90;;;;;;5028516;28;20028;-54
2022/04/12 00:37:37;;;;;;;26.98;16.52;;;22.50;99.90;;;;;;5029072;28;20025;-54
2022/04/12 00:40:04;;;;;;;31.05;17.65;;;22.50;99.90;;;;;;5028611;28;20087;-54
2022/04/12 00:42:31;;;;;;;23.85;16.40;;;22.50;99.90;;;;;;5027620;28;20030;-54
2022/04/12 00:44:57;;;;;;;23.52;15.75;;;22.50;99.90;;;;;;5028435;28;20038;-54
2022/04/12 00:47:23;;;;;;;22.25;15.07;;;22.50;99.90;;;;;;5028473;28;20438;-54
2022/04/12 00:49:48;;;;;;;24.58;16.25;;;22.50;99.90;;;;;;5029061;28;20032;-53
2022/04/12 00:52:15;;;;;;;27.33;16.45;;;22.50;99.90;;;;;;5032002;28;20024;-53
2022/04/12 00:54:42;;;;;;;26.95;16.27;;;22.50;99.90;;;;;;5031652;28;20448;-53
2022/04/12 00:57:08;;;;;;;28.10;15.75;;;22.50;99.90;;;;;;5031970;28;20074;-53
2022/04/12 00:59:35;;;;;;;22.50;15.00;;;22.50;99.90;;;;;;5032756;28;20539;-53
2022/04/12 01:02:08;;;;;;;25.80;15.55;;;22.50;99.90;;;;;;5030354;28;20038;-54
2022/04/12 01:04:34;;;;;;;23.45;16.05;;;22.50;99.90;;;;;;5028658;28;20033;-54
2022/04/12 01:07:00;;;;;;;26.45;16.67;;;22.50;99.90;;;;;;5032051;28;20489;-53
2022/04/12 01:09:27;;;;;;;24.67;16.40;;;22.50;99.90;;;;;;5030984;28;20030;-54
2022/04/12 01:11:53;;;;;;;22.77;14.73;;;22.50;99.90;;;;;;5032535;28;20128;-54
2022/04/12 01:14:19;;;;;;;28.58;16.00;;;22.40;99.90;;;;;;5028965;28;20080;-54
2022/04/12 01:16:45;;;;;;;24.35;15.70;;;22.40;99.90;;;;;;5030513;28;20108;-53
2022/04/12 01:19:11;;;;;;;26.63;16.30;;;22.50;99.90;;;;;;5031855;28;20112;-53
2022/04/12 01:21:49;;;;;;;23.27;15.57;;;22.50;99.90;;;;;;5030818;28;20021;-54
2022/04/12 01:24:15;;;;;;;21.98;15.85;;;22.50;99.90;;;;;;5029182;28;20037;-53
2022/04/12 01:26:41;;;;;;;24.52;15.43;;;22.50;99.90;;;;;;5026637;28;20382;-54
2022/04/12 01:29:07;;;;;;;23.30;15.50;;;22.40;99.90;;;;;;5031525;28;20362;-55
2022/04/12 01:31:33;;;;;;;26.48;15.15;;;22.40;99.90;;;;;;5032619;28;20033;-54
2022/04/12 01:33:59;;;;;;;23.50;15.23;;;22.40;99.90;;;;;;5029002;28;20439;-52
2022/04/12 01:36:24;;;;;;;27.98;16.17;;;22.40;99.90;;;;;;5031809;28;20037;-52
2022/04/12 01:38:50;;;;;;;23.92;16.23;;;22.40;99.90;;;;;;5032225;28;20026;-54
2022/04/12 01:41:16;;;;;;;24.15;15.50;;;22.40;99.90;;;;;;5033282;28;20026;-53
2022/04/12 01:43:42;;;;;;;24.27;16.00;;;22.40;99.90;;;;;;5033520;28;20028;-54
2022/04/12 01:46:08;;;;;;;26.23;16.40;;;22.40;99.90;;;;;;5033356;28;20029;-54
2022/04/12 01:48:33;;;;;;;26.10;16.05;;;22.40;99.90;;;;;;5033144;28;20026;-54
2022/04/12 01:50:59;;;;;;;21.10;15.48;;;22.40;99.90;;;;;;5033289;28;20036;-53
2022/04/12 01:53:25;;;;;;;23.65;15.48;;;22.40;99.90;;;;;;5033251;28;20017;-52
2022/04/12 01:55:51;;;;;;;21.70;15.98;;;22.40;99.90;;;;;;5033270;28;20032;-52
2022/04/12 01:58:16;;;;;;;25.08;16.20;;;22.40;99.90;;;;;;5033180;28;20093;-53
2022/04/12 02:00:43;;;;;;;24.42;16.55;;;22.40;99.90;;;;;;5033076;28;20045;-53
2022/04/12 02:03:09;;;;;;;24.77;15.60;;;22.40;99.90;;;;;;5025314;28;20025;-53
2022/04/12 02:05:35;;;;;;;26.83;16.50;;;22.50;99.90;;;;;;5033125;28;20022;-53
2022/04/12 02:08:01;;;;;;;22.40;15.32;;;22.40;99.90;;;;;;5026325;28;20028;-53
2022/04/12 02:10:27;;;;;;;25.25;14.93;;;22.50;99.90;;;;;;5023476;28;20087;-53
2022/04/12 02:12:53;;;;;;;23.67;14.75;;;22.50;99.90;;;;;;5030758;28;20025;-53
2022/04/12 02:15:19;;;;;;;24.38;15.77;;;22.50;99.90;;;;;;5030960;28;20033;-53
2022/04/12 02:17:45;;;;;;;22.00;15.20;;;22.50;99.90;;;;;;5032287;28;20425;-53
2022/04/12 02:20:11;;;;;;;23.35;15.27;;;22.50;99.90;;;;;;5033126;28;20033;-53
2022/04/12 02:22:37;;;;;;;21.38;14.98;;;22.40;99.90;;;;;;5033072;28;20239;-53
2022/04/12 02:25:04;;;;;;;22.50;14.57;;;22.40;99.90;;;;;;5032819;28;20462;-51
2022/04/12 02:27:30;;;;;;;25.23;14.52;;;22.40;99.90;;;;;;5033110;28;20030;-53
2022/04/12 02:29:56;;;;;;;26.15;15.05;;;22.40;99.90;;;;;;5032759;28;20075;-52
2022/04/12 02:32:22;;;;;;;23.92;15.98;;;22.40;99.90;;;;;;5033060;28;20029;-53
2022/04/12 02:34:48;;;;;;;22.65;15.02;;;22.40;99.90;;;;;;5032819;28;20049;-53
2022/04/12 02:37:14;;;;;;;24.55;14.82;;;22.40;99.90;;;;;;5032953;28;20033;-53
2022/04/12 02:39:40;;;;;;;24.50;15.90;;;22.40;99.90;;;;;;5032954;28;20051;-53
2022/04/12 02:42:06;;;;;;;22.52;15.43;;;22.40;99.90;;;;;;5032593;28;20033;-53
2022/04/12 02:44:32;;;;;;;23.13;14.30;;;22.40;99.90;;;;;;5031473;28;20021;-53
2022/04/12 02:46:58;;;;;;;25.70;14.43;;;22.40;99.90;;;;;;5032459;28;20051;-53
2022/04/12 02:49:23;;;;;;;21.33;15.13;;;22.40;99.90;;;;;;5032661;28;20389;-53
2022/04/12 02:51:51;;;;;;;18.75;13.68;;;22.40;99.90;;;;;;5032324;28;20053;-54
2022/04/12 02:54:18;;;;;;;24.13;14.68;;;22.40;99.90;;;;;;5032570;28;20036;-54
2022/04/12 02:56:44;;;;;;;23.10;15.77;;;22.40;99.90;;;;;;5032678;28;20030;-54
2022/04/12 02:59:13;;;;;;;23.10;15.40;;;22.40;99.90;;;;;;5032638;28;20017;-54
2022/04/12 03:01:38;;;;;;;22.80;15.38;;;22.40;99.90;;;;;;5032236;28;20068;-54
2022/04/12 03:04:04;;;;;;;22.60;14.80;;;22.40;99.90;;;;;;5032092;28;20056;-55
2022/04/12 03:06:30;;;;;;;23.92;14.07;;;22.40;99.90;;;;;;5032357;28;20030;-53
2022/04/12 03:08:56;;;;;;;27.02;15.40;;;22.30;99.90;;;;;;5030762;28;20067;-55
2022/04/12 03:11:21;;;;;;;23.63;14.45;;;22.40;99.90;;;;;;5031899;28;20029;-54
2022/04/12 03:13:48;;;;;;;21.38;14.65;;;22.40;99.90;;;;;;5031431;28;20035;-54
2022/04/12 03:16:14;;;;;;;21.40;14.47;;;22.30;99.90;;;;;;5032253;28;20104;-54
2022/04/12 03:18:40;;;;;;;20.05;13.18;;;22.40;99.90;;;;;;5032125;28;20358;-55
2022/04/12 03:21:05;;;;;;;19.60;13.48;;;22.30;99.90;;;;;;5032075;28;20071;-54
2022/04/12 03:23:31;;;;;;;20.02;13.80;;;22.30;99.90;;;;;;5031976;28;20116;-54
2022/04/12 03:25:57;;;;;;;19.25;12.57;;;22.30;99.90;;;;;;5031891;28;20036;-54
2022/04/12 03:28:23;;;;;;;21.27;13.63;;;22.30;99.90;;;;;;5031759;28;20049;-54
2022/04/12 03:30:48;;;;;;;22.75;13.98;;;22.30;99.90;;;;;;5032115;28;20025;-53
2022/04/12 03:33:14;;;;;;;21.63;14.50;;;22.30;99.90;;;;;;5031923;28;20033;-54
2022/04/12 03:35:40;;;;;;;21.65;14.02;;;22.30;99.90;;;;;;5030613;28;20025;-54
2022/04/12 03:38:06;;;;;;;21.27;12.60;;;22.30;99.90;;;;;;5031908;28;20056;-54
2022/04/12 03:40:32;;;;;;;22.05;12.32;;;22.30;99.90;;;;;;5031662;28;20022;-54
2022/04/12 03:42:59;;;;;;;23.17;13.63;;;22.30;99.90;;;;;;5031781;28;20030;-54
2022/04/12 03:45:26;;;;;;;18.55;13.00;;;22.20;99.90;;;;;;5031483;28;20040;-54
2022/04/12 03:47:51;;;;;;;20.95;13.20;;;22.20;99.90;;;;;;5031657;28;20037;-53
2022/04/12 03:50:17;;;;;;;20.98;12.88;;;22.20;99.90;;;;;;5031540;28;20119;-53
2022/04/12 03:52:43;;;;;;;20.58;13.70;;;22.20;99.90;;;;;;5031937;28;20100;-53
2022/04/12 03:55:10;;;;;;;21.45;13.57;;;22.20;99.90;;;;;;5031532;28;20033;-53
2022/04/12 03:57:37;;;;;;;24.90;13.00;;;22.20;99.90;;;;;;5031532;28;20083;-53
2022/04/12 04:00:08;;;;;;;18.15;12.40;;;22.20;99.90;;;;;;5031902;28;20528;-53
2022/04/12 04:02:37;;;;;;;16.92;12.00;;;22.20;99.90;;;;;;5031701;28;20039;-53
2022/04/12 04:05:03;;;;;;;17.33;12.65;;;22.20;99.90;;;;;;5031170;28;20029;-52
2022/04/12 04:07:29;;;;;;;17.00;12.32;;;22.20;99.90;;;;;;5031147;28;20523;-52
2022/04/12 04:09:55;;;;;;;23.10;12.93;;;22.10;99.90;;;;;;5031079;28;20381;-50
2022/04/12 04:12:22;;;;;;;17.63;12.40;;;22.20;99.90;;;;;;5031065;28;20116;-52
2022/04/12 04:14:49;;;;;;;17.30;11.75;;;22.10;99.90;;;;;;5031343;28;20014;-52
2022/04/12 04:17:15;;;;;;;18.05;12.90;;;22.10;99.90;;;;;;5030027;28;20489;-52
2022/04/12 04:19:41;;;;;;;17.73;12.43;;;22.10;99.90;;;;;;5030963;28;20049;-52
2022/04/12 04:22:07;;;;;;;19.92;12.98;;;22.10;99.90;;;;;;5031181;28;20428;-52
2022/04/12 04:24:33;;;;;;;17.17;12.63;;;22.10;99.90;;;;;;5030899;28;20030;-52
2022/04/12 04:26:59;;;;;;;16.20;11.68;;;22.10;99.90;;;;;;5029762;28;20109;-52
2022/04/12 04:29:27;;;;;;;18.40;13.15;;;22.10;99.90;;;;;;5031130;28;20017;-52
2022/04/12 04:31:53;;;;;;;19.15;12.90;;;22.10;99.90;;;;;;5030946;28;20014;-52
2022/04/12 04:34:19;;;;;;;17.33;12.07;;;22.10;99.90;;;;;;5031475;28;20041;-52
2022/04/12 04:36:45;;;;;;;17.95;12.50;;;22.10;99.90;;;;;;5031101;28;20394;-53
2022/04/12 04:39:11;;;;;;;17.10;12.18;;;22.10;99.90;;;;;;5031057;28;20419;-53
2022/04/12 04:41:37;;;;;;;18.02;12.55;;;22.10;99.90;;;;;;5030726;28;20629;-53
2022/04/12 04:44:03;;;;;;;19.38;12.82;;;22.10;99.90;;;;;;5030972;28;20025;-53
2022/04/12 04:46:29;;;;;;;16.90;11.60;;;22.00;99.90;;;;;;5030811;28;20493;-53
2022/04/12 04:48:55;;;;;;;16.27;11.70;;;22.00;99.90;;;;;;5030755;28;20031;-53
2022/04/12 04:51:20;;;;;;;22.42;12.98;;;22.00;99.90;;;;;;5029568;28;20025;-53
2022/04/12 04:53:55;;;;;;;16.52;11.32;;;22.00;99.90;;;;;;5030766;28;20133;-53
2022/04/12 04:56:21;;;;;;;21.30;12.23;;;22.10;99.90;;;;;;5030779;28;20029;-53
2022/04/12 04:58:47;;;;;;;17.50;11.48;;;22.00;99.90;;;;;;5030792;28;20103;-52
2022/04/12 05:01:13;;;;;;;16.83;11.38;;;22.00;99.90;;;;;;5030528;28;20057;-53
2022/04/12 05:03:39;;;;;;;21.10;12.75;;;22.00;99.90;;;;;;5030668;28;20266;-53
2022/04/12 05:06:05;;;;;;;18.70;11.30;;;22.00;99.90;;;;;;5030708;28;20450;-53
2022/04/12 05:08:30;;;;;;;15.32;10.80;;;22.00;99.90;;;;;;5030567;28;20033;-53
2022/04/12 05:10:56;;;;;;;19.90;12.20;;;22.00;99.90;;;;;;5030675;28;20030;-53
2022/04/12 05:13:22;;;;;;;19.55;12.27;;;22.00;99.90;;;;;;5030697;28;20026;-52
2022/04/12 05:15:47;;;;;;;15.65;10.55;;;22.00;99.90;;;;;;5030940;28;20033;-53
2022/04/12 05:18:13;;;;;;;18.83;11.15;;;22.00;99.90;;;;;;5030489;28;20397;-52
2022/04/12 05:20:39;;;;;;;19.73;11.32;;;22.00;99.90;;;;;;5030578;28;20474;-52
2022/04/12 05:23:05;;;;;;;17.33;10.70;;;22.00;99.90;;;;;;5030470;28;20029;-53
2022/04/12 05:25:31;;;;;;;14.38;10.10;;;22.00;99.90;;;;;;5030496;28;20057;-53
2022/04/12 05:27:57;;;;;;;15.98;11.52;;;22.00;99.90;;;;;;5030449;28;20060;-52
2022/04/12 05:30:22;;;;;;;17.30;10.88;;;22.00;99.90;;;;;;5030565;28;20061;-53
2022/04/12 05:32:48;;;;;;;16.02;10.93;;;22.00;99.90;;;;;;5030770;28;20036;-52
2022/04/12 05:35:14;;;;;;;13.35;9.98;;;22.00;99.90;;;;;;5030755;28;20473;-52
2022/04/12 05:37:49;;;;;;;14.63;10.57;;;22.00;99.90;;;;;;5034065;28;20420;-52
2022/04/12 05:40:18;;;;;;;18.20;11.10;;;22.00;99.90;;;;;;5033726;28;20038;-54
2022/04/12 05:42:44;;;;;;;16.75;10.70;;;22.00;99.90;;;;;;5032670;28;20029;-54
2022/04/12 05:45:12;;;;;;;13.55;9.93;;;22.00;99.90;;;;;;5033558;28;20036;-54
2022/04/12 05:47:44;;;;;;;15.82;11.30;;;22.00;99.90;;;;;;5033933;28;20049;-53
2022/04/12 05:50:11;;;;;;;16.20;10.38;;;22.00;99.90;;;;;;5033702;28;20393;-54
2022/04/12 05:52:38;;;;;;;14.75;10.52;;;22.00;99.90;;;;;;5033793;28;20025;-54
2022/04/12 05:55:09;;;;;;;14.00;10.02;;;22.00;99.90;;;;;;5033759;28;20437;-53
2022/04/12 05:57:46;;;;;;;14.07;9.93;;;22.00;99.90;;;;;;5020019;28;20087;-53
2022/04/12 06:00:12;;;;;;;15.25;9.63;;;22.00;99.90;;;;;;5033479;28;20047;-53
2022/04/12 06:02:38;;;;;;;15.60;9.65;;;22.00;99.90;;;;;;5033418;28;20495;-52
2022/04/12 06:05:05;;;;;;;12.98;9.30;;;22.00;99.90;;;;;;5033368;28;20093;-53
2022/04/12 06:07:32;;;;;;;13.33;9.83;;;22.00;99.90;;;;;;5033454;28;20346;-53
2022/04/12 06:09:59;;;;;;;17.30;10.38;;;22.00;99.90;;;;;;5033466;28;20021;-52
2022/04/12 06:12:25;;;;;;;14.60;9.98;;;22.00;99.90;;;;;;5032104;28;20540;-54
2022/04/12 06:14:51;;;;;;;14.15;10.05;;;22.00;99.90;;;;;;5033570;28;20398;-52
2022/04/12 06:17:17;;;;;;;15.13;9.38;;;22.00;99.90;;;;;;5033375;28;20065;-51
2022/04/12 06:19:43;;;;;;;15.43;9.80;;;22.00;99.90;;;;;;5032971;28;20022;-51
2022/04/12 06:22:08;;;;;;;15.23;9.15;;;22.00;99.90;;;;;;5033292;28;20159;-53
2022/04/12 06:24:34;;;;;;;16.02;10.30;;;22.00;99.90;;;;;;5032892;28;20052;-51
2022/04/12 06:27:00;;;;;;;16.30;9.70;;;22.00;99.90;;;;;;5033016;28;20033;-51
2022/04/12 06:29:27;;;;;;;16.23;10.32;;;22.00;99.90;;;;;;5032996;28;20478;-51
2022/04/12 06:31:52;;;;;;;13.00;9.25;;;22.00;99.90;;;;;;5031894;28;20059;-52
2022/04/12 06:34:18;;;;;;;15.85;10.30;;;22.00;99.90;;;;;;5033017;28;20533;-51
2022/04/12 06:36:44;;;;;;;12.32;9.52;;;22.00;99.90;;;;;;5032780;28;20083;-51
2022/04/12 06:39:09;;;;;;;14.38;9.93;;;22.00;99.90;;;;;;5032837;28;20470;-51
2022/04/12 06:41:35;;;;;;;14.80;9.57;;;22.00;99.90;;;;;;5032695;28;20029;-51
2022/04/12 06:44:01;;;;;;;13.73;9.52;;;22.00;99.90;;;;;;5032713;28;20032;-52
2022/04/12 06:46:27;;;;;;;14.45;10.15;;;22.00;99.90;;;;;;5032166;28;20041;-52
2022/04/12 06:48:53;;;;;;;15.63;9.93;;;22.00;99.90;;;;;;5032125;28;20026;-52
2022/04/12 06:51:19;;;;;;;15.05;9.90;;;22.00;99.90;;;;;;5032736;28;20083;-52
2022/04/12 06:53:45;;;;;;;16.48;10.48;;;22.00;99.90;;;;;;5032424;28;20022;-52
2022/04/12 06:56:11;;;;;;;15.63;10.13;;;22.00;99.90;;;;;;5032634;28;20049;-53
2022/04/12 06:58:36;;;;;;;14.82;10.43;;;22.00;99.90;;;;;;5032404;28;20021;-52
2022/04/12 07:01:02;;;;;;;15.52;10.70;;;22.00;99.90;;;;;;5032291;28;20068;-52
2022/04/12 07:03:28;;;;;;;16.10;10.05;;;22.00;99.90;;;;;;5032335;28;20462;-52
2022/04/12 07:05:56;;;;;;;15.68;10.02;;;22.10;99.90;;;;;;5032388;28;20044;-52
2022/04/12 07:08:24;;;;;;;14.77;10.65;;;22.00;99.90;;;;;;5032161;28;20020;-52
2022/04/12 07:10:50;;;;;;;17.90;10.40;;;22.00;99.90;;;;;;5032217;28;20040;-52
2022/04/12 07:13:16;;;;;;;12.18;9.68;;;22.10;99.90;;;;;;5031986;28;20021;-52
2022/04/12 07:15:43;;;;;;;15.68;10.27;;;22.10;99.90;;;;;;5032092;28;20470;-52
2022/04/12 07:18:10;;;;;;;12.48;9.45;;;22.10;99.90;;;;;;5031989;28;20427;-50
2022/04/12 07:20:36;;;;;;;11.88;8.27;;;22.10;99.90;;;;;;5032218;28;20079;-52
2022/04/12 07:23:02;;;;;;;16.67;9.95;;;22.10;99.90;;;;;;5031921;28;20025;-52
2022/04/12 07:25:27;;;;;;;14.35;9.35;;;22.10;99.90;;;;;;5032119;28;20038;-51
2022/04/12 07:27:53;;;;;;;14.48;9.63;;;22.10;99.90;;;;;;5032162;28;20031;-52
2022/04/12 07:30:19;;;;;;;13.15;8.57;;;22.10;99.90;;;;;;5031744;28;20022;-52
2022/04/12 07:32:45;;;;;;;12.73;8.98;;;22.10;99.90;;;;;;5031856;28;20041;-52
2022/04/12 07:35:11;;;;;;;11.93;8.88;;;22.10;99.90;;;;;;5031544;28;20384;-52
2022/04/12 07:37:36;;;;;;;13.55;9.18;;;22.10;99.90;;;;;;5031784;28;20032;-52
2022/04/12 07:40:04;;;;;;;12.38;9.27;;;22.10;99.90;;;;;;5031603;28;20061;-52
2022/04/12 07:42:30;;;;;;;12.10;8.88;;;22.10;99.90;;;;;;5031768;28;20088;-53
2022/04/12 07:44:55;;;;;;;11.32;8.32;;;22.10;99.90;;;;;;5031810;28;20501;-53
2022/04/12 07:47:21;;;;;;;12.85;8.65;;;22.10;99.90;;;;;;5030177;28;20436;-52
2022/04/12 07:49:47;;;;;;;12.82;8.82;;;22.10;99.90;;;;;;5030356;28;20025;-52
2022/04/12 07:52:13;;;;;;;11.73;8.88;;;22.10;99.90;;;;;;5031331;28;20022;-52
2022/04/12 07:54:38;;;;;;;12.23;8.45;;;22.10;99.90;;;;;;5030059;28;20032;-52
2022/04/12 07:57:05;;;;;;;12.57;8.75;;;22.20;99.90;;;;;;5031402;28;20129;-52
2022/04/12 07:59:30;;;;;;;11.90;9.00;;;22.20;99.90;;;;;;5030846;28;20037;-52
2022/04/12 08:01:56;;;;;;;11.30;7.90;;;22.10;99.90;;;;;;5031349;28;20021;-52
2022/04/12 08:04:22;;;;;;;13.52;8.75;;;22.10;99.90;;;;;;5031350;28;20079;-52
2022/04/12 08:06:48;;;;;;;11.65;7.85;;;22.20;99.90;;;;;;5029990;28;20060;-52
2022/04/12 08:09:13;;;;;;;12.30;8.00;;;22.20;99.90;;;;;;5031125;28;20053;-52
2022/04/12 08:11:39;;;;;;;13.10;9.15;;;22.20;99.90;;;;;;5031197;28;20025;-52
2022/04/12 08:14:05;;;;;;;14.90;8.65;;;22.20;99.90;;;;;;5029935;28;20021;-52
2022/04/12 08:16:31;;;;;;;11.55;8.43;;;22.20;99.90;;;;;;5031264;28;20017;-53
2022/04/12 08:18:57;;;;;;;14.15;8.70;;;22.20;99.90;;;;;;5031364;28;20493;-52
2022/04/12 08:21:37;;;;;;;10.70;7.80;;;22.10;99.90;;;;;;5030995;28;20038;-52
2022/04/12 08:24:04;;;;;;;12.60;8.00;;;22.20;99.90;;;;;;5029743;28;20437;-52
2022/04/12 08:26:30;;;;;;;14.68;9.35;;;22.20;99.90;;;;;;5031037;28;20366;-52
2022/04/12 08:28:56;;;;;;;13.23;8.73;;;22.20;99.90;;;;;;5031094;28;20029;-52
2022/04/12 08:31:22;;;;;;;13.18;8.60;;;22.20;99.90;;;;;;5029619;28;20040;-52
2022/04/12 08:33:48;;;;;;;14.40;8.75;;;22.20;99.90;;;;;;5029643;28;20116;-53
2022/04/12 08:36:16;;;;;;;11.70;8.27;;;22.20;99.90;;;;;;5029627;28;20026;-54
2022/04/12 08:38:44;;;;;;;19.70;10.80;;;22.20;99.90;;;;;;5030706;28;20099;-52
2022/04/12 08:41:12;;;;;;;12.68;8.30;;;22.20;99.90;;;;;;5029561;28;20033;-52
2022/04/12 08:43:39;;;;;;;11.65;8.18;;;22.20;99.90;;;;;;5030697;28;20374;-52
2022/04/12 08:46:06;;;;;;;14.23;9.25;;;22.20;99.90;;;;;;5030638;28;20034;-52
2022/04/12 08:48:33;;;;;;;13.93;8.40;;;22.20;99.90;;;;;;5031036;28;20026;-53
2022/04/12 08:51:00;;;;;;;14.33;9.73;;;22.30;99.90;;;;;;5031142;28;20465;-53
2022/04/12 08:53:26;;;;;;;14.85;9.18;;;22.20;99.90;;;;;;5030662;28;20075;-55
2022/04/12 08:55:53;;;;;;;14.25;8.48;;;22.30;99.90;;;;;;5030801;28;20025;-54
2022/04/12 08:58:18;;;;;;;13.07;8.23;;;22.30;99.90;;;;;;5030878;28;20087;-54
2022/04/12 09:00:45;;;;;;;12.43;8.07;;;22.30;99.90;;;;;;5030427;28;20041;-53
2022/04/12 09:03:14;;;;;;;16.85;8.88;;;22.20;99.90;;;;;;5030771;28;20109;-53
2022/04/12 09:05:41;;;;;;;16.02;9.10;;;22.30;99.90;;;;;;5030560;28;20405;-54
2022/04/12 09:08:29;;;;;;;23.98;12.93;;;22.30;99.90;;;;;;5030510;28;20022;-53
2022/04/12 09:11:07;;;;;;;19.90;12.25;;;22.20;99.90;;;;;;5032222;28;20404;-53
2022/04/12 09:13:33;;;;;;;20.52;12.18;;;22.20;99.90;;;;;;5034565;28;20603;-53
2022/04/12 09:16:00;;;;;;;22.90;13.45;;;22.30;99.90;;;;;;5034503;28;20033;-53
2022/04/12 09:18:39;;;;;;;20.73;13.82;;;22.20;99.90;;;;;;5034195;28;20358;-53
2022/04/12 09:21:17;;;;;;;20.70;14.15;;;22.30;99.90;;;;;;5034164;28;20026;-53
2022/04/12 09:23:54;;;;;;;22.88;12.68;;;22.30;99.90;;;;;;5021795;28;20095;-53
2022/04/12 09:26:24;;;;;;;;;;;22.30;99.90;;;;;;5033211;28;20151;-52
2022/04/12 09:28:52;;;;;;;22.63;12.77;;;22.30;99.90;;;;;;5034320;28;20357;-52
2022/04/12 09:31:20;;;;;;;20.63;10.90;;;22.30;99.90;;;;;;5034130;28;20191;-53
2022/04/12 09:33:47;;;;;;;19.23;10.95;;;22.30;99.90;;;;;;5034115;28;20014;-52
2022/04/12 09:36:12;;;;;;;18.48;10.45;;;22.30;99.90;;;;;;5032752;28;20033;-52
2022/04/12 09:38:41;;;;;;;16.55;10.35;;;22.30;99.90;;;;;;5033808;28;20018;-52
2022/04/12 09:41:20;;;;;;;21.45;10.27;;;22.30;99.90;;;;;;5033925;28;20057;-53
2022/04/12 09:44:08;;;;;;;18.02;10.50;;;22.30;99.90;;;;;;5033570;28;20021;-53
2022/04/12 09:46:42;;;;;;;21.00;10.00;;;22.30;99.90;;;;;;5033841;28;20513;-53
2022/04/12 09:49:08;;;;;;;17.40;9.80;;;22.30;99.90;;;;;;5020482;28;20021;-53
2022/04/12 09:51:37;;;;;;;14.65;9.45;;;22.30;99.90;;;;;;5033893;28;20028;-53
2022/04/12 09:54:08;;;;;;;15.93;9.45;;;22.30;99.90;;;;;;5031691;28;20489;-53
2022/04/12 09:56:35;;;;;;;14.50;9.63;;;22.30;99.90;;;;;;5043450;28;20056;-52
2022/04/12 09:59:06;;;;;;;16.17;9.10;;;22.30;99.90;;;;;;5033565;28;20040;-52
2022/04/12 10:01:39;;;;;;;15.20;9.02;;;22.30;99.90;;;;;;5033500;28;20080;-52
2022/04/12 10:04:08;;;;;;;15.20;7.72;;;22.30;99.90;;;;;;5033373;28;20018;-53
2022/04/12 10:06:40;;;;;;;16.65;9.50;;;22.30;99.90;;;;;;5032216;28;20034;-52
2022/04/12 10:09:10;;;;;;;19.38;5.00;;;22.30;99.90;;;;;;5032094;28;20025;-54
2022/04/12 10:11:36;;;;;;;10.20;4.05;;;22.20;99.90;;;;;;5032189;28;20021;-53
2022/04/12 10:14:02;;;;;;;13.05;3.55;;;21.90;99.90;;;;;;5026920;28;20014;-53
2022/04/12 10:16:28;;;;;;;10.68;2.92;;;21.70;99.90;;;;;;5032638;28;20041;-53
2022/04/12 10:18:54;;;;;;;13.98;3.10;;;21.50;99.90;;;;;;5030489;28;20025;-53
2022/04/12 10:21:22;;;;;;;10.13;2.50;;;21.50;99.90;;;;;;5032759;28;20029;-55
2022/04/12 10:23:54;;;;;;;8.18;2.60;;;21.40;99.90;;;;;;5033086;28;20036;-56
2022/04/12 10:26:23;;;;;;;9.15;2.42;;;21.50;99.90;;;;;;5031602;28;20125;-51
2022/04/12 10:28:59;;;;;;;9.98;2.85;;;21.50;99.90;;;;;;5025785;28;20037;-53
2022/04/12 10:31:26;;;;;;;9.68;2.80;;;21.50;99.90;;;;;;5032256;28;20037;-54
2022/04/12 10:34:14;;;;;;;8.05;2.22;;;21.60;99.90;;;;;;5032144;28;20079;-52
2022/04/12 10:37:00;;;;;;;12.10;2.85;;;21.60;99.90;;;;;;5032232;28;20370;-55
2022/04/12 10:39:34;;;;;;;9.15;2.65;;;21.70;99.90;;;;;;5032326;28;20021;-54
2022/04/12 10:42:06;;;;;;;8.93;2.47;;;21.70;99.90;;;;;;5029284;28;20025;-55
2022/04/12 10:44:56;;;;;;;9.68;2.70;;;21.80;99.90;;;;;;5029918;28;20095;-56
2022/04/12 10:47:33;;;;;;;11.38;2.70;;;21.80;99.90;;;;;;5019114;28;20556;-54
2022/04/12 10:50:02;;;;;;;8.77;2.97;;;21.90;99.90;;;;;;5032573;28;20031;-56
2022/04/12 10:52:50;;;;;;;9.57;3.30;;;21.90;99.90;;;;;;5019124;28;20029;-54
2022/04/12 10:55:17;;;;;;;10.55;3.15;;;21.90;99.90;;;;;;5032203;28;20040;-54
2022/04/12 10:57:44;;;;;;;10.68;3.60;;;21.90;99.90;;;;;;5032563;28;20029;-58
2022/04/12 11:00:14;;;;;;;7.03;2.75;;;22.00;99.90;;;;;;5020801;28;20107;-54
2022/04/12 11:02:45;;;;;;;13.05;4.03;;;22.00;99.90;;;;;;5029419;28;20052;-54
2022/04/12 11:05:33;;;;;;;10.43;2.88;;;22.00;99.90;;;;;;5022093;28;20017;-56
2022/04/12 11:07:59;;;;;;;8.30;3.00;;;22.10;99.90;;;;;;5028398;28;20013;-55
2022/04/12 11:10:25;;;;;;;7.70;2.70;;;22.10;99.90;;;;;;5032344;28;20026;-54
2022/04/12 11:13:04;;;;;;;11.07;3.13;;;22.10;99.90;;;;;;5032240;28;20024;-54
2022/04/12 11:15:31;;;;;;;9.18;3.25;;;22.10;99.90;;;;;;5032278;28;20880;-55
2022/04/12 11:18:12;;;;;;;9.45;3.72;;;22.10;99.90;;;;;;5031935;28;20063;-54
2022/04/12 11:20:45;;;;;;;9.40;3.05;;;22.20;99.90;;;;;;5032306;28;20034;-55
2022/04/12 11:23:13;;;;;;;9.65;3.53;;;22.20;99.90;;;;;;5031916;28;20025;-56
2022/04/12 11:25:50;;;;;;;13.30;4.15;;;22.20;99.90;;;;;;5032264;28;20037;-57
2022/04/12 11:28:22;;;;;;;13.18;4.05;;;22.10;99.90;;;;;;5031938;28;20029;-57
2022/04/12 11:30:57;;;;;;;11.68;3.92;;;22.10;99.90;;;;;;5031857;28;20026;-57
2022/04/12 11:33:27;;;;;;;11.80;3.85;;;22.20;99.90;;;;;;5031047;28;20064;-59
2022/04/12 11:35:54;;;;;;;11.27;4.60;;;22.20;99.90;;;;;;5031688;28;20025;-59
2022/04/12 11:38:22;;;;;;;13.37;6.53;;;22.20;99.90;;;;;;5031843;28;20033;-59
2022/04/12 11:40:51;;;;;;;16.50;7.00;;;22.20;99.90;;;;;;5031505;28;20064;-58
2022/04/12 11:43:35;;;;;;;15.70;5.63;;;22.20;99.90;;;;;;5031503;28;20025;-59
2022/04/12 11:46:03;;;;;;;14.40;5.82;;;22.20;99.90;;;;;;5031477;28;20037;-59
2022/04/12 11:48:31;;;;;;;16.70;6.63;;;22.20;99.90;;;;;;5031424;28;20100;-60
2022/04/12 11:50:57;;;;;;;18.15;6.80;;;22.20;99.90;;;;;;5031580;28;20049;-58
2022/04/12 11:53:25;;;;;;;13.02;6.65;;;22.30;99.90;;;;;;5031409;28;20032;-57
2022/04/12 11:55:57;;;;;;;12.18;6.07;;;22.30;99.90;;;;;;5031329;28;20021;-57
2022/04/12 11:58:26;;;;;;;12.68;6.20;;;22.30;99.90;;;;;;5031388;28;20099;-59
2022/04/12 12:00:52;;;;;;;15.63;6.57;;;22.30;99.90;;;;;;5031076;28;20124;-59
2022/04/12 12:03:19;;;;;;;13.20;6.88;;;22.30;99.90;;;;;;5031285;28;20116;-61
2022/04/12 12:05:45;;;;;;;12.40;6.47;;;22.40;99.90;;;;;;5031018;28;20029;-57
2022/04/12 12:08:17;;;;;;;17.77;7.87;;;22.40;99.90;;;;;;5031386;28;20018;-59
2022/04/12 12:10:45;;;;;;;12.85;6.78;;;22.40;99.90;;;;;;5031524;28;20022;-59
2022/04/12 12:13:11;;;;;;;15.70;6.97;;;22.40;99.90;;;;;;5029905;28;20104;-59
2022/04/12 12:15:38;;;;;;;17.38;8.43;;;22.50;99.90;;;;;;5030937;28;20025;-59
2022/04/12 12:18:06;;;;;;;19.83;9.52;;;22.50;99.90;;;;;;5031069;28;20476;-59
2022/04/12 12:20:36;;;;;;;16.42;9.15;;;22.50;99.90;;;;;;5031097;28;20436;-58
2022/04/12 12:23:05;;;;;;;25.67;11.65;;;22.60;99.90;;;;;;5030931;28;20022;-59
2022/04/12 12:25:36;;;;;;;19.75;11.82;;;22.60;99.90;;;;;;5030937;28;20030;-59
2022/04/12 12:28:08;;;;;;;23.83;12.80;;;22.60;99.90;;;;;;5030838;28;20513;-59
2022/04/12 12:30:34;;;;;;;15.13;8.40;;;22.70;99.90;;;;;;5030541;28;20505;-59
2022/04/12 12:33:00;;;;;;;12.75;6.43;;;22.70;99.90;;;;;;5031085;28;20365;-56
2022/04/12 12:35:27;;;;;;;12.70;6.97;;;22.60;99.90;;;;;;5018561;28;20061;-57
2022/04/12 12:38:09;;;;;;;13.07;7.07;;;22.60;99.90;;;;;;5014036;28;20355;-57